Underwood, Iowa
Current Conditions -  °F | °C
As of 1:15 PM on Friday 28 Nov 2014 (Local Time) from KCBF Reporting Station
Clear Clear  
Wind Chill: 42°   Ceiling: Unl
Heat Index: 46°   Visibility: 10mi
Dew Point: 30°   Wind: 8mph
Humidity: 53%   Direction: 200°SSW
Pressure: 29.73"   Gusts: NA
Location:  41.39°N, 95.68°W
Report Text: KCBF 281915Z AUTO 20007KT 10SM CLR 08/M01 A2973 RMK AO2
Loading
Personal Weather Stations






























Interactive Weather Map New forecast layout! Learn more

10-Day Weather Forecast

Advertisements
Track Severe Weather on mobile